Terminal Aerodrome Forecast
Issued by NWS Dodge City, KS

Home | Current Version | Previous Version | Text Only | Print | Product List | Glossary Off
Versions: 1 2 3 4 5 6 7 8 9 10 11 12 13 14 15 16 17 18 19 20 21 22 23 24 25 26 27 28 29 30 31 32 33 34 35 36

000
FTUS43 KDDC 060817 AAA
TAFDDC
TAF AMD
KDDC 060817Z 0608/0706 19012KT P6SM SCT004 SCT090
      TEMPO 0609/0613 BKN005
     FM061500 17018G26KT P6SM SCT010
     FM062000 20024G32KT P6SM SKC
     FM070100 18014KT P6SM SCT200=

USA.gov is the U.S. government's official web portal to all federal, state and local government web resources and services.